Aeroporto :







RITROVATECI SU...

 
LOGIN :

Iscrizione | Disclaimer

   EN    FR    IT 

 









Sommario :    VFR   VFR Marginale   IFR   IFR Intensivo   IFR Molto Intensivo
Visibilità : 
Base nubi : 
>= 8 km
>= 3000ft
5 / 8 km
1000 / 3000 ft
1500m / 5 km
500 / 1000 ft
800 / 1500m
200 / 500 ft
< 800m
< 200 ft
Simboli :   Temporali  Nebbia  Neve Forte  Precipitazioni Forti  Vento > 20 kt






- Altitudine del aeroporto : 121 ft
- Codice IATA : YBX


CYBX - Lourdes De Blanc Sablon

ULTIMO METAR :
  • 241534Z 14017G24KT 110V170 1 1/2SM -DZ BR OVC011 07/06 A2893 RMK ST8 SLP799 DENSITY ALT 400FT

METARs OBSOLETI :
  • 241401Z 10017G23KT 6SM -RA BR OVC037 05/04 A2902 RMK ST8 PRESFR SLP830
  • 241300Z 11021G26KT 6SM BR BKN010 OVC017 04/04 A2910 RMK ST6SC2 PRESFR SLP856
  • 241239Z 10022G28KT 3SM -RA BR OVC011 04/03 A2912 RMK ST8 PRESFR SLP864

TAF AMD TAF CYBX
Valido dal 24 a 14 ore il 25 a 02 ore UTC


241429Z 2414/2502 10020G30KT 6SM -RA SCT012 OVC030
TEMPO 2414/2418 5SM -RA BR OVC012
PROB30 2414/2418 2SM -RA BR BKN008
FM241800 20030G40KT P6SM -RA OVC015
TEMPO 2418/2424 3SM -DZ BR BKN007 OVC015
FM250000 31030G45KT P6SM BKN030 OVC100
TEMPO 2500/2502 P6SM -SHSN RMK NXT FCST BY 242000Z
FIR CZUL / America del Nord



MetMap, La meteo Aeronautica in un colpo d'occhio ! - Copyright ORBIFLY Dicembre 2007 - Disclaimer

ORBIFLY MET'MAP TEAM :

Programmazione e sviluppo : Alexandra Zaïnal
Concezione : Baudouin d'Aumeries
Aiuto per la programmazione : Marc-Olivier Méhu
Supporto tecnico e logistico : Manuel Goepfert
Aiuto per la traduzione : Arnaldo La Scala

Contatto : metmap@orbifly.com




FONTI E CREDITI :

   NOAA